Latest Weather Observations for Point Cook

IDV60901

Issued at 11:51 pm EST Sunday 26 June 2022 (issued every 10 minutes, with the page automatically refreshed every 10 minutes)

About weather observations | Map of Melbourne area stations | Latest observations for Melbourne area | Other Formats
Station Details ID: 087185 Name: POINT COOK RAAF Lat: -37.93 Lon: 144.76 Height: 3.13 m
Data from the previous 72 hours. | See also: Recent months for locations in Victoria
Date/Time
EST
Temp
°C
App
Temp
°C
Dew
Point
°C
Rel
Hum
%
Delta-T
°C
Wind Press
QNH
hPa
Press
MSL
hPa
Rain since
9am
mm
Dir  Spd
km/h
Gust
km/h
Spd
kts
Gust
kts
26/11:30pm 5.8 2.1 4.4 91 0.6 WNW 13 17 7 9 1029.3 1029.3 2.0
26/11:00pm 6.4 2.3 4.6 88 0.8 WNW 15 19 8 10 1029.0 1029.0 2.0
26/10:30pm 6.5 3.2 4.7 88 0.8 WNW 11 17 6 9 1028.8 1028.8 2.0
26/10:00pm 7.0 3.0 5.0 87 0.9 W 15 19 8 10 1028.4 1028.4 2.0
26/09:30pm 7.4 3.5 5.2 86 1.0 W 15 20 8 11 1028.2 1028.2 2.0
26/09:00pm 6.8 3.6 5.0 88 0.8 WNW 11 17 6 9 1027.9 1027.9 2.0
26/08:30pm 6.9 4.1 5.1 88 0.8 WNW 9 13 5 7 1027.4 1027.4 2.0
26/08:00pm 7.8 4.3 5.4 85 1.1 WNW 13 17 7 9 1027.1 1027.1 2.0
26/07:30pm 8.3 5.6 5.8 84 1.1 WNW 9 13 5 7 1026.8 1026.8 2.0
26/07:00pm 8.2 5.6 6.0 86 1.0 W 9 11 5 6 1026.4 1026.4 2.0
26/06:30pm 8.8 6.3 6.6 86 1.0 W 9 11 5 6 1026.2 1026.2 2.0
26/06:00pm 9.4 7.0 6.8 84 1.2 W 9 17 5 9 1025.9 1025.9 2.0
26/05:30pm 9.1 7.2 7.4 89 0.8 WSW 7 9 4 5 1025.5 1025.5 2.0
26/05:00pm 9.6 5.6 8.4 92 0.6 SW 19 28 10 15 1025.2 1025.2 2.0
26/04:30pm 10.9 8.5 7.2 78 1.8 WSW 9 20 5 11 1024.8 1024.8 2.0
26/04:00pm 10.8 7.1 7.9 82 1.4 SW 17 30 9 16 1024.2 1024.2 2.0
26/03:30pm 11.6 10.8 8.1 79 1.7 WSW 2 4 1 2 1023.7 1023.7 2.0
26/03:00pm 11.5 9.7 8.0 79 1.7 W 7 11 4 6 1023.5 1023.5 2.0
26/02:30pm 11.2 8.8 8.6 84 1.3 SW 11 15 6 8 1023.4 1023.4 2.0
26/02:00pm 11.2 9.2 8.8 85 1.2 SW 9 13 5 7 1023.5 1023.5 1.6
26/01:30pm 11.6 8.5 7.1 74 2.2 W 13 20 7 11 1023.6 1023.6 1.6
26/01:00pm 12.2 9.1 7.1 71 2.4 W 13 20 7 11 1023.4 1023.4 1.6
26/12:30pm 12.4 9.4 7.5 72 2.4 W 13 19 7 10 1023.5 1023.5 1.6
26/12:00pm 11.9 8.4 8.6 80 1.6 WNW 17 24 9 13 1023.7 1023.7 1.6
26/11:30am 11.4 8.6 10.0 91 0.7 NW 15 22 8 12 1023.7 1023.7 1.6
26/11:00am 10.8 8.4 9.9 94 0.5 NW 13 15 7 8 1023.7 1023.7 1.6
26/10:30am 10.3 8.1 9.4 94 0.4 WNW 11 15 6 8 1023.7 1023.7 1.6
26/10:25am 10.4 7.9 9.6 95 0.4 WNW 13 15 7 8 1023.7 1023.7 1.6
26/10:01am 10.4 7.5 9.6 95 0.4 W 15 24 8 13 1023.6 1023.6 1.2
26/10:00am 10.3 7.4 9.5 95 0.4 W 15 24 8 13 1023.6 1023.6 1.2
26/09:50am 10.4 6.4 9.0 91 0.7 WSW 20 30 11 16 1023.6 1023.6 0.8
26/09:42am 11.4 8.0 9.3 87 1.1 WSW 17 24 9 13 1023.4 1023.4 0.0
26/09:30am 12.4 9.3 8.9 79 1.8 WNW 15 24 8 13 1023.2 1023.2 0.0
26/09:00am 11.6 9.5 8.3 80 1.6 WNW 9 13 5 7 1023.0 1023.0 0.0
26/08:30am 11.1 7.7 7.6 79 1.7 NW 15 24 8 13 1022.8 1022.8 0.0
26/08:00am 10.7 7.6 7.2 79 1.7 NNW 13 17 7 9 1022.3 1022.3 0.0
26/07:30am 10.3 7.6 7.2 81 1.5 NNW 11 15 6 8 1021.9 1021.9 0.0
26/07:00am 10.5 7.0 7.4 81 1.5 NNW 15 17 8 9 1021.8 1021.8 0.0
26/06:30am 9.9 6.9 7.7 86 1.1 N 13 17 7 9 1021.5 1021.5 0.0
26/06:00am 9.3 7.0 7.3 87 0.9 N 9 13 5 7 1021.1 1021.1 0.0
26/05:30am 10.1 7.9 7.9 86 1.1 N 9 13 5 7 1020.8 1020.8 0.0
26/05:00am 10.4 8.0 8.7 89 0.8 N 11 13 6 7 1020.5 1020.5 0.0
26/04:30am 10.2 8.3 9.0 92 0.6 NNW 9 11 5 6 1020.2 1020.2 0.0
26/04:19am 10.6 7.9 9.0 90 0.8 NW 13 17 7 9 1020.2 1020.2 0.0
26/04:06am 11.0 7.2 8.9 87 1.0 NW 19 30 10 16 1020.4 1020.4 0.0
26/04:00am 11.5 7.6 8.5 82 1.5 NNW 19 30 10 16 1020.3 1020.3 0.0
26/03:30am 11.3 9.6 8.2 81 1.5 N 7 9 4 5 1020.3 1020.3 0.0
26/03:00am 11.8 9.3 8.1 78 1.8 N 11 15 6 8 1020.1 1020.1 0.0
26/02:30am 11.7 9.2 8.0 78 1.8 N 11 15 6 8 1020.3 1020.3 0.0
26/02:00am 11.8 8.8 7.9 77 1.9 N 13 19 7 10 1020.3 1020.3 0.0
26/01:30am 11.9 9.0 8.2 78 1.8 N 13 19 7 10 1020.3 1020.3 0.0
26/01:00am 11.6 8.7 8.1 79 1.7 N 13 17 7 9 1020.5 1020.5 0.0
26/12:30am 11.9 8.1 7.6 75 2.1 N 17 20 9 11 1020.4 1020.4 0.0
26/12:00am 11.5 8.4 7.4 76 2.0 N 13 17 7 9 1020.3 1020.3 0.0
 
Date/Time
EST
Temp
°C
App
Temp
°C
Dew
Point
°C
Rel
Hum
%
Delta-T
°C
Wind Press
QNH
hPa
Press
MSL
hPa
Rain since
9am
mm
Dir  Spd
km/h
Gust
km/h
Spd
kts
Gust
kts
25/11:30pm 12.4 9.0 7.7 73 2.3 N 15 19 8 10 1020.5 1020.5 0.0
25/11:00pm 12.4 8.6 7.5 72 2.4 N 17 20 9 11 1020.3 1020.3 0.0
25/10:30pm 11.0 7.9 7.3 78 1.8 N 13 17 7 9 1020.0 1020.0 0.0
25/10:00pm 11.0 7.5 7.1 77 1.9 N 15 20 8 11 1020.0 1020.0 0.0
25/09:30pm 10.9 7.4 7.2 78 1.8 N 15 20 8 11 1019.8 1019.8 0.0
25/09:00pm 10.6 7.0 6.9 78 1.7 N 15 17 8 9 1019.8 1019.8 0.0
25/08:30pm 11.4 7.5 7.1 75 2.1 N 17 22 9 12 1019.7 1019.7 0.0
25/08:00pm 10.9 7.0 7.0 77 1.8 N 17 20 9 11 1019.5 1019.5 0.0
25/07:30pm 11.1 7.3 7.4 78 1.8 N 17 20 9 11 1019.5 1019.5 0.0
25/07:00pm 11.4 7.5 7.3 76 2.0 N 17 20 9 11 1019.2 1019.2 0.0
25/06:30pm 12.3 7.9 7.6 73 2.3 N 20 26 11 14 1018.8 1018.8 0.0
25/06:00pm 12.8 8.0 7.5 70 2.6 N 22 32 12 17 1018.4 1018.4 0.0
25/05:30pm 13.4 9.0 7.4 67 2.9 N 20 28 11 15 1018.3 1018.3 0.0
25/05:00pm 14.1 10.2 6.9 62 3.5 NNW 17 22 9 12 1018.5 1018.5 0.0
25/04:30pm 14.9 8.8 6.7 58 4.0 NNW 28 41 15 22 1018.2 1018.2 0.0
25/04:00pm 15.7 10.4 6.7 55 4.4 NNW 24 39 13 21 1018.3 1018.3 0.0
25/03:30pm 15.7 10.3 6.4 54 4.5 NW 24 33 13 18 1018.2 1018.2 0.0
25/03:00pm 15.6 9.1 6.6 55 4.4 NW 30 46 16 25 1018.2 1018.2 0.0
25/02:31pm 15.8 9.8 7.1 56 4.3 NW 28 46 15 25 1018.2 1018.2 0.0
25/02:30pm 15.8 9.4 6.8 55 4.4 NW 30 46 16 25 1018.2 1018.2 0.0
25/02:00pm 15.8 9.4 6.8 55 4.4 NW 30 41 16 22 1018.1 1018.1 0.0
25/01:39pm 15.8 9.7 6.5 54 4.5 NW 28 48 15 26 1018.3 1018.3 0.0
25/01:30pm 15.9 9.5 6.9 55 4.4 NW 30 43 16 23 1018.4 1018.4 0.0
25/01:00pm 15.4 8.5 6.4 55 4.4 NW 32 44 17 24 1018.5 1018.5 0.0
25/12:30pm 15.3 9.2 6.6 56 4.2 NW 28 35 15 19 1018.7 1018.7 0.0
25/12:00pm 15.3 8.9 7.1 58 4.0 NW 30 43 16 23 1018.8 1018.8 0.0
25/11:30am 14.8 8.8 6.9 59 3.9 NW 28 39 15 21 1019.2 1019.2 0.0
25/11:00am 14.4 8.3 6.7 60 3.7 NNW 28 37 15 20 1019.3 1019.3 0.0
25/10:30am 13.9 7.5 7.0 63 3.4 NNW 30 35 16 19 1019.4 1019.4 0.0
25/10:00am 13.4 8.3 7.6 68 2.8 NNW 24 35 13 19 1019.4 1019.4 0.0
25/09:30am 12.6 8.3 7.1 69 2.7 NNW 19 26 10 14 1019.1 1019.1 0.0
25/09:00am 11.8 7.2 6.5 70 2.5 NNW 20 28 11 15 1018.9 1018.9 0.0
25/08:30am 10.4 6.3 6.2 75 2.0 NNW 17 24 9 13 1018.5 1018.5 0.0
25/08:00am 9.2 5.8 5.9 80 1.5 N 13 17 7 9 1018.3 1018.3 0.0
25/07:30am 8.3 4.5 5.6 83 1.2 N 15 19 8 10 1018.1 1018.1 0.0
25/07:00am 8.0 4.5 5.3 83 1.2 NW 13 17 7 9 1018.0 1018.0 0.0
25/06:30am 8.7 4.4 5.4 80 1.5 NNW 17 20 9 11 1017.7 1017.7 0.0
25/06:00am 8.7 4.0 5.1 78 1.6 NNW 19 24 10 13 1017.3 1017.3 0.0
25/05:30am 8.4 3.7 5.0 79 1.5 N 19 22 10 12 1017.1 1017.1 0.0
25/05:00am 7.8 3.4 4.9 82 1.3 N 17 20 9 11 1016.9 1016.9 0.0
25/04:30am 7.8 4.2 5.1 83 1.2 N 13 17 7 9 1016.8 1016.8 0.0
25/04:00am 8.1 4.6 5.4 83 1.2 N 13 17 7 9 1016.7 1016.7 0.0
25/03:30am 8.5 5.0 5.6 82 1.3 N 13 17 7 9 1016.8 1016.8 0.0
25/03:00am 9.4 5.7 6.1 80 1.5 N 15 20 8 11 1016.7 1016.7 0.0
25/02:30am 9.9 7.1 6.8 81 1.5 N 11 15 6 8 1016.8 1016.8 0.0
25/02:00am 9.3 6.8 6.4 82 1.3 NNW 9 13 5 7 1016.9 1016.9 0.0
25/01:30am 10.2 7.4 7.1 81 1.5 N 11 13 6 7 1016.7 1016.7 0.0
25/01:00am 11.1 8.4 7.2 77 1.9 NNW 11 15 6 8 1016.7 1016.7 0.0
25/12:30am 11.1 8.4 7.4 78 1.8 NW 11 15 6 8 1017.0 1017.0 0.0
25/12:00am 11.0 8.8 7.7 80 1.6 NW 9 13 5 7 1017.1 1017.1 0.0
 
Date/Time
EST
Temp
°C
App
Temp
°C
Dew
Point
°C
Rel
Hum
%
Delta-T
°C
Wind Press
QNH
hPa
Press
MSL
hPa
Rain since
9am
mm
Dir  Spd
km/h
Gust
km/h
Spd
kts
Gust
kts
24/11:30pm 10.3 8.1 7.7 84 1.2 NNW 9 9 5 5 1017.2 1017.2 0.0
24/11:00pm 9.9 7.9 7.3 84 1.2 NNW 7 9 4 5 1017.1 1017.1 0.0
24/10:30pm 10.1 8.1 7.2 82 1.4 NNW 7 9 4 5 1017.1 1017.1 0.0
24/10:00pm 10.8 8.6 8.0 83 1.4 NNW 9 11 5 6 1017.2 1017.2 0.0
24/09:30pm 10.6 8.8 8.0 84 1.3 NW 7 9 4 5 1017.2 1017.2 0.0
24/09:00pm 9.6 7.7 7.7 88 0.9 NW 7 9 4 5 1017.2 1017.2 0.0
24/08:30pm 9.8 8.1 7.7 87 1.0 WNW 6 7 3 4 1017.1 1017.1 0.0
24/08:00pm 9.9 8.0 7.5 85 1.1 NW 7 9 4 5 1017.0 1017.0 0.0
24/07:30pm 11.1 9.6 8.3 83 1.4 WNW 6 9 3 5 1017.0 1017.0 0.0
24/07:00pm 11.0 8.1 8.1 82 1.4 W 13 19 7 10 1016.8 1016.8 0.0
24/06:30pm 10.2 8.2 7.1 81 1.5 W 7 9 4 5 1016.4 1016.4 0.0
24/06:00pm 11.2 9.5 7.7 79 1.7 W 6 9 3 5 1016.1 1016.1 0.0
24/05:30pm 12.0 10.2 7.1 72 2.4 W 6 7 3 4 1015.6 1015.6 0.0
24/05:00pm 13.0 11.0 7.0 67 2.9 W 7 9 4 5 1015.4 1015.4 0.0
24/04:30pm 13.8 11.5 7.3 65 3.2 WNW 9 13 5 7 1015.1 1015.1 0.0
24/04:00pm 15.1 12.9 7.9 62 3.6 WNW 9 13 5 7 1014.9 1014.9 0.0
24/03:30pm 15.0 12.1 8.0 63 3.5 WNW 13 22 7 12 1014.8 1014.8 0.0
24/03:00pm 14.6 11.2 9.0 69 2.8 W 17 24 9 13 1014.8 1014.8 0.0
24/02:30pm 13.8 8.9 8.6 71 2.6 WSW 24 37 13 20 1014.7 1014.7 0.0
24/02:00pm 15.2 11.0 7.3 59 3.9 W 19 26 10 14 1014.5 1014.5 0.0
24/01:30pm 15.9 11.6 7.9 59 4.0 W 20 30 11 16 1014.6 1014.6 0.0
24/01:00pm 15.4 11.2 8.2 62 3.6 WNW 20 26 11 14 1014.8 1014.8 0.0
24/12:30pm 14.9 10.7 8.4 65 3.3 W 20 32 11 17 1015.0 1015.0 0.0
24/12:00pm 14.6 11.7 9.8 73 2.5 WNW 15 19 8 10 1015.1 1015.1 0.0
24/11:30am 14.5 10.9 9.9 74 2.4 NW 19 28 10 15 1015.2 1015.2 0.0
24/11:00am 13.9 10.7 10.1 78 2.0 NW 17 24 9 13 1015.3 1015.3 0.0
24/10:30am 14.0 10.8 10.0 77 2.1 WNW 17 24 9 13 1015.2 1015.2 0.0
24/10:00am 12.5 8.8 10.2 86 1.2 WNW 20 30 11 16 1015.0 1015.0 0.0
24/09:30am 12.8 10.6 10.7 87 1.1 NW 13 28 7 15 1014.8 1014.8 0.0
24/09:00am 12.0 10.2 10.9 93 0.6 NW 11 17 6 9 1014.4 1014.4 0.8
24/08:30am 12.0 8.9 10.4 90 0.8 NW 17 24 9 13 1014.0 1014.0 0.8
24/08:00am 12.5 8.4 10.0 85 1.3 WNW 22 37 12 20 1013.6 1013.6 0.8
24/07:30am 12.9 10.0 9.5 80 1.7 NW 15 24 8 13 1013.4 1013.4 0.8
24/07:00am 12.9 10.0 9.5 80 1.7 NW 15 22 8 12 1012.9 1012.9 0.8
24/06:30am 13.1 11.0 9.7 80 1.7 NW 11 17 6 9 1012.4 1012.4 0.8
24/06:00am 12.8 11.6 10.2 84 1.3 NNW 7 15 4 8 1011.9 1011.9 0.8
24/05:30am 13.1 10.7 9.9 81 1.6 NNW 13 17 7 9 1011.4 1011.4 0.8
24/05:00am 12.0 10.3 9.7 86 1.2 NNE 9 11 5 6 1011.2 1011.2 0.4
24/04:30am 12.8 10.5 9.1 78 1.9 N 11 17 6 9 1011.2 1011.2 0.0
24/04:00am 13.1 9.7 9.0 76 2.1 N 17 22 9 12 1011.2 1011.2 0.0
24/03:30am 13.6 9.5 8.7 72 2.5 N 20 26 11 14 1011.4 1011.4 0.0
24/03:00am 14.2 10.2 8.4 68 2.9 N 19 28 10 15 1011.7 1011.7 0.0
24/02:30am 13.6 10.1 8.7 72 2.5 N 17 24 9 13 1012.0 1012.0 0.0
24/02:00am 13.4 7.8 8.9 74 2.3 N 28 37 15 20 1011.8 1011.8 0.0
24/01:30am 13.4 7.1 9.1 75 2.2 N 32 43 17 23 1011.7 1011.7 0.0
24/01:00am 13.7 7.3 8.7 72 2.5 N 32 48 17 26 1011.9 1011.9 0.0
24/12:30am 14.2 6.9 8.6 69 2.8 N 37 54 20 29 1012.2 1012.2 0.0
24/12:00am 14.3 7.7 8.7 69 2.8 N 33 44 18 24 1012.5 1012.5 0.0

Latest Capital City Observations: Canberra | Sydney | Melbourne | Brisbane | Adelaide | Perth | Hobart | Darwin

Other formats

Comma delimited format used in spreadsheet applications
http://www.bom.gov.au/fwo/IDV60901/IDV60901.95941.axf

JavaScript Object Notation format (JSON) in row-major order
http://www.bom.gov.au/fwo/IDV60901/IDV60901.95941.json

Data quality

Most of these data are generated automatically and are frequently updated. Quality checks on data are not normally performed. It is possible for incorrect values to appear. Refer to information at About Latest Weather Observations and please check the disclaimer before using these data.